createdAt,value
2017-06-27T00:01:47.533Z,11.30
2017-06-27T00:04:16.016Z,11.30
2017-06-27T00:06:44.542Z,11.20
2017-06-27T01:33:24.005Z,10.70
2017-06-27T01:35:52.832Z,10.70
2017-06-27T01:38:21.319Z,10.60
2017-06-27T01:40:49.785Z,10.50
2017-06-27T01:43:18.273Z,10.50
2017-06-27T01:45:46.769Z,10.50
2017-06-27T01:48:15.314Z,10.60
2017-06-27T01:50:43.840Z,10.50
2017-06-27T01:53:12.312Z,10.40
2017-06-27T01:55:40.895Z,10.40
2017-06-27T01:58:09.344Z,10.40
2017-06-27T02:00:38.520Z,10.40
2017-06-27T02:03:07.058Z,10.40
2017-06-27T02:05:35.641Z,10.50
2017-06-27T02:08:04.132Z,10.50
2017-06-27T02:10:32.772Z,10.50
2017-06-27T02:13:01.298Z,10.50
2017-06-27T02:15:29.777Z,10.50
2017-06-27T02:17:58.362Z,10.60
2017-06-27T02:20:26.821Z,10.50
2017-06-27T02:22:55.397Z,10.60
2017-06-27T02:28:03.345Z,10.40
2017-06-27T02:30:31.976Z,10.50
2017-06-27T02:33:00.554Z,10.40
2017-06-27T02:35:29.027Z,10.40
2017-06-27T02:37:57.908Z,10.50
2017-06-27T02:40:26.592Z,10.50
2017-06-27T02:42:55.228Z,10.50
2017-06-27T02:45:23.695Z,10.40
2017-06-27T02:47:52.402Z,10.40
2017-06-27T02:50:21.195Z,10.40
2017-06-27T02:52:50.041Z,10.20
2017-06-27T02:55:18.474Z,10.20
2017-06-27T02:57:48.004Z,10.20
2017-06-27T03:00:16.474Z,10.10
2017-06-27T03:02:44.980Z,10.10
2017-06-27T03:05:13.469Z,10.10
2017-06-27T03:07:41.944Z,10.00
2017-06-27T03:10:10.572Z,10.10
2017-06-27T03:12:39.047Z,10.10
2017-06-27T03:15:07.801Z,10.10
2017-06-27T03:17:36.295Z,10.10
2017-06-27T03:20:05.077Z,10.10
2017-06-27T03:22:33.708Z,10.00
2017-06-27T03:25:02.360Z,10.00
2017-06-27T03:27:31.010Z,10.00
2017-06-27T03:29:59.521Z,10.10
2017-06-27T03:32:27.960Z,10.10
2017-06-27T03:34:57.173Z,10.20
2017-06-27T03:37:25.920Z,10.10
2017-06-27T03:39:54.445Z,10.20
2017-06-27T03:42:22.888Z,10.20
2017-06-27T03:44:51.411Z,10.30
2017-06-27T03:47:19.912Z,10.20
2017-06-27T03:49:48.432Z,10.30
2017-06-27T03:52:16.884Z,10.30
2017-06-27T03:54:45.335Z,10.40
2017-06-27T03:57:13.962Z,10.40
2017-06-27T03:59:42.438Z,10.50
2017-06-27T04:02:11.120Z,10.60
2017-06-27T04:04:39.698Z,10.70
2017-06-27T04:07:08.146Z,10.90
2017-06-27T04:09:36.951Z,10.90
2017-06-27T04:12:05.623Z,11.00
2017-06-27T04:14:34.941Z,11.20
2017-06-27T04:17:03.832Z,11.10
2017-06-27T04:19:32.518Z,11.30
2017-06-27T04:22:01.208Z,11.40
2017-06-27T04:24:30.098Z,11.50
2017-06-27T04:26:58.785Z,11.60
2017-06-27T04:29:27.676Z,11.70
2017-06-27T04:31:56.364Z,12.00
2017-06-27T04:34:24.876Z,12.20
2017-06-27T04:36:53.332Z,12.20
2017-06-27T04:39:22.222Z,12.40
2017-06-27T04:41:50.910Z,12.50
2017-06-27T04:44:19.608Z,12.60
2017-06-27T04:46:48.069Z,12.70
2017-06-27T04:49:17.261Z,12.80
2017-06-27T04:51:45.744Z,12.80
2017-06-27T04:54:14.540Z,12.90
2017-06-27T04:56:43.754Z,13.30
2017-06-27T04:59:12.209Z,13.20
2017-06-27T05:01:40.819Z,13.50
2017-06-27T05:04:09.324Z,13.90
2017-06-27T05:06:37.799Z,14.20
2017-06-27T05:09:06.393Z,14.40
2017-06-27T05:11:34.961Z,14.60
2017-06-27T05:14:03.380Z,14.70
2017-06-27T05:16:32.044Z,15.00
2017-06-27T05:19:00.609Z,15.20
2017-06-27T05:21:29.225Z,15.60
2017-06-27T05:23:58.031Z,15.80
2017-06-27T05:26:26.792Z,16.00
2017-06-27T05:28:55.257Z,15.80
2017-06-27T05:31:23.732Z,15.70
2017-06-27T05:33:52.280Z,15.90
2017-06-27T05:36:20.771Z,15.90
2017-06-27T05:38:49.256Z,15.90
2017-06-27T05:41:17.760Z,15.90
2017-06-27T05:43:46.224Z,15.90
2017-06-27T05:46:15.956Z,15.70
2017-06-27T05:48:44.518Z,15.60
2017-06-27T05:51:13.017Z,15.50
2017-06-27T05:53:41.537Z,15.30
2017-06-27T05:56:10.729Z,15.20
2017-06-27T05:58:39.184Z,15.20
2017-06-27T06:01:07.661Z,15.20
2017-06-27T06:03:36.125Z,15.30
2017-06-27T06:06:04.776Z,15.60
2017-06-27T06:08:33.245Z,15.60
2017-06-27T06:11:01.838Z,15.60
2017-06-27T06:13:30.625Z,15.40
2017-06-27T06:15:59.116Z,15.20
2017-06-27T06:18:27.657Z,15.30
2017-06-27T06:20:56.124Z,15.30
2017-06-27T06:23:25.346Z,15.50
2017-06-27T06:26:12.072Z,15.70
2017-06-27T06:28:40.517Z,15.70
2017-06-27T06:31:09.228Z,15.60
2017-06-27T06:33:37.789Z,15.60
2017-06-27T06:36:07.053Z,15.50
2017-06-27T06:38:35.791Z,15.40
2017-06-27T06:41:04.406Z,15.60
2017-06-27T06:43:32.874Z,15.50
2017-06-27T06:46:01.489Z,15.70
2017-06-27T06:48:30.067Z,15.60
2017-06-27T06:50:58.505Z,15.60
2017-06-27T06:53:27.112Z,15.80
2017-06-27T06:55:55.618Z,15.80
2017-06-27T06:58:24.098Z,16.00
2017-06-27T07:00:52.564Z,16.30
2017-06-27T07:03:21.024Z,16.60
2017-06-27T07:05:49.924Z,17.10
2017-06-27T07:08:18.849Z,17.60
2017-06-27T07:10:48.609Z,18.60
2017-06-27T07:13:17.969Z,19.30
2017-06-27T07:15:46.583Z,19.30
2017-06-27T07:18:15.156Z,19.40
2017-06-27T07:20:43.645Z,18.90
2017-06-27T07:23:12.222Z,19.30
2017-06-27T07:25:41.945Z,19.20
2017-06-27T07:28:11.296Z,19.30
2017-06-27T07:30:40.090Z,19.30
2017-06-27T07:33:08.972Z,19.80
2017-06-27T07:35:37.487Z,20.20
2017-06-27T07:38:05.999Z,20.60
2017-06-27T07:40:35.254Z,21.60
2017-06-27T07:43:03.772Z,21.50
2017-06-27T07:45:32.755Z,22.50
2017-06-27T07:48:00.604Z,22.70
2017-06-27T07:50:28.505Z,22.20
2017-06-27T07:52:56.440Z,22.40
2017-06-27T07:55:24.373Z,22.70
2017-06-27T07:57:52.252Z,22.80
2017-06-27T08:00:20.138Z,23.30
2017-06-27T08:02:48.796Z,23.40
2017-06-27T08:16:42.697Z,23.60
2017-06-27T08:19:11.161Z,22.10
2017-06-27T08:21:39.720Z,20.80
2017-06-27T08:24:08.326Z,20.80
2017-06-27T08:26:37.208Z,20.60
2017-06-27T08:29:05.761Z,21.00
2017-06-27T08:31:35.027Z,21.60
2017-06-27T08:34:03.509Z,21.60
2017-06-27T08:36:31.963Z,22.00
2017-06-27T08:39:00.529Z,22.30
2017-06-27T08:41:29.184Z,22.40
2017-06-27T08:43:57.667Z,22.40
2017-06-27T08:46:26.176Z,23.80
2017-06-27T08:48:54.645Z,24.20
2017-06-27T08:51:23.981Z,24.30
2017-06-27T08:53:52.465Z,24.30
2017-06-27T08:56:20.924Z,23.90
2017-06-27T08:58:49.405Z,22.70
2017-06-27T09:01:17.844Z,22.30
2017-06-27T09:03:46.549Z,22.30
2017-06-27T09:06:15.252Z,22.10
2017-06-27T09:08:44.571Z,22.20
2017-06-27T09:11:13.009Z,22.00
2017-06-27T09:13:41.652Z,23.20
2017-06-27T09:16:10.128Z,24.00
2017-06-27T09:18:38.669Z,24.90
2017-06-27T09:21:07.856Z,25.20
2017-06-27T09:23:36.513Z,25.00
2017-06-27T09:26:05.169Z,24.70
2017-06-27T09:28:33.855Z,24.80
2017-06-27T09:31:02.316Z,24.80
2017-06-27T09:33:31.485Z,24.30
2017-06-27T09:36:00.356Z,24.30
2017-06-27T09:38:28.812Z,23.90
2017-06-27T09:40:57.252Z,24.80
2017-06-27T09:43:25.740Z,25.60
2017-06-27T09:45:53.573Z,25.40
2017-06-27T09:48:21.458Z,25.50
2017-06-27T09:50:49.292Z,25.70
2017-06-27T09:53:17.136Z,25.40
2017-06-27T09:55:44.965Z,25.80
2017-06-27T09:58:13.553Z,25.80
2017-06-27T10:00:41.401Z,25.40
2017-06-27T10:03:09.929Z,25.90
2017-06-27T10:05:38.530Z,27.00
2017-06-27T10:08:06.623Z,26.90
2017-06-27T10:10:34.444Z,26.40
2017-06-27T10:13:02.885Z,26.70
2017-06-27T10:15:31.360Z,25.40
2017-06-27T10:17:59.840Z,25.20
2017-06-27T10:20:28.299Z,25.50
2017-06-27T10:22:56.777Z,25.60
2017-06-27T10:25:26.986Z,25.30
2017-06-27T10:27:55.452Z,25.10
2017-06-27T10:30:23.921Z,24.70
2017-06-27T10:32:52.400Z,25.20
2017-06-27T10:35:21.010Z,25.20
2017-06-27T10:37:49.588Z,25.60
2017-06-27T10:40:19.120Z,25.80
2017-06-27T10:42:48.568Z,25.60
2017-06-27T10:45:17.736Z,25.80
2017-06-27T10:47:46.613Z,25.60
2017-06-27T10:50:15.656Z,25.90
2017-06-27T10:52:44.639Z,25.80
2017-06-27T10:55:13.438Z,25.20
2017-06-27T10:57:42.389Z,26.20
2017-06-27T11:00:11.274Z,25.60
2017-06-27T11:02:39.917Z,24.90
2017-06-27T11:05:08.471Z,25.70
2017-06-27T11:07:37.046Z,26.30
2017-06-27T11:10:05.925Z,26.20
2017-06-27T11:12:34.463Z,26.90
2017-06-27T11:15:03.036Z,26.30
2017-06-27T11:17:31.516Z,26.10
2017-06-27T11:20:00.378Z,26.50
2017-06-27T11:22:28.846Z,25.70
2017-06-27T11:24:57.528Z,25.00
2017-06-27T11:27:26.064Z,24.80
2017-06-27T11:29:54.810Z,23.90
2017-06-27T11:32:23.373Z,23.40
2017-06-27T11:34:52.581Z,24.60
2017-06-27T11:37:21.388Z,24.50
2017-06-27T11:39:49.999Z,24.60
2017-06-27T11:42:18.460Z,24.70
2017-06-27T11:44:46.892Z,25.00
2017-06-27T11:47:15.712Z,24.70
2017-06-27T11:49:44.224Z,24.10
2017-06-27T11:52:12.678Z,24.20
2017-06-27T11:54:42.113Z,24.20
2017-06-27T11:57:10.921Z,24.20
2017-06-27T11:59:39.733Z,24.30
2017-06-27T12:02:11.729Z,24.20
2017-06-27T12:04:43.242Z,24.20
2017-06-27T12:07:20.793Z,24.90
2017-06-27T12:09:49.808Z,24.20
2017-06-27T12:12:18.748Z,23.90
2017-06-27T12:14:48.877Z,24.10
2017-06-27T12:17:17.862Z,24.00
2017-06-27T12:19:47.965Z,24.60
2017-06-27T12:22:23.573Z,24.50
2017-06-27T12:24:53.390Z,24.40
2017-06-27T12:27:25.850Z,24.50
2017-06-27T12:29:56.082Z,25.00
2017-06-27T12:32:57.026Z,24.70
2017-06-27T12:35:25.737Z,25.20
2017-06-27T12:40:41.807Z,25.70
2017-06-27T12:43:11.919Z,26.10
2017-06-27T12:45:41.269Z,26.60
2017-06-27T12:48:11.047Z,26.20
2017-06-27T12:50:41.473Z,25.80
2017-06-27T12:53:10.912Z,26.10
2017-06-27T12:55:43.707Z,26.30
2017-06-27T12:58:13.230Z,26.40
2017-06-27T13:00:42.294Z,25.60
2017-06-27T13:03:11.546Z,25.90
2017-06-27T13:05:41.642Z,26.70
2017-06-27T13:08:10.808Z,26.60
2017-06-27T13:10:40.848Z,26.90
2017-06-27T13:13:11.232Z,26.30
2017-06-27T13:15:45.013Z,26.20
2017-06-27T13:18:13.061Z,25.90
2017-06-27T13:20:41.926Z,26.60
2017-06-27T13:23:11.086Z,26.10
2017-06-27T13:25:39.752Z,25.60
2017-06-27T13:28:09.683Z,24.30
2017-06-27T13:30:38.999Z,24.30
2017-06-27T13:33:08.461Z,24.60
2017-06-27T13:35:37.692Z,24.60
2017-06-27T13:38:07.305Z,24.80
2017-06-27T13:40:36.316Z,24.50
2017-06-27T13:43:05.249Z,24.00
2017-06-27T13:45:36.934Z,23.70
2017-06-27T13:48:08.425Z,23.40
2017-06-27T13:50:38.160Z,23.70
2017-06-27T13:53:07.940Z,23.50
2017-06-27T13:55:37.652Z,23.50
2017-06-27T13:58:07.304Z,23.40
2017-06-27T14:00:37.130Z,23.30
2017-06-27T14:03:06.430Z,22.80
2017-06-27T14:05:36.553Z,23.00
2017-06-27T14:08:06.130Z,22.90
2017-06-27T14:10:35.185Z,22.80
2017-06-27T14:13:03.820Z,22.30
2017-06-27T14:15:33.526Z,22.10
2017-06-27T14:18:03.081Z,22.50
2017-06-27T14:20:34.908Z,22.70
2017-06-27T14:23:06.508Z,22.40
2017-06-27T14:25:34.974Z,22.60
2017-06-27T14:28:05.203Z,22.60
2017-06-27T14:30:37.221Z,22.50
2017-06-27T14:33:13.088Z,22.80
2017-06-27T14:35:42.076Z,22.70
2017-06-27T14:38:10.583Z,22.60
2017-06-27T14:40:39.903Z,22.30
2017-06-27T14:43:08.381Z,22.20
2017-06-27T14:45:36.838Z,22.10
2017-06-27T14:48:05.339Z,21.90
2017-06-27T14:50:34.625Z,21.90
2017-06-27T14:53:03.995Z,22.10
2017-06-27T14:55:32.498Z,22.00
2017-06-27T14:58:01.097Z,22.10
2017-06-27T15:00:30.424Z,22.10
2017-06-27T15:02:59.481Z,22.00
2017-06-27T15:05:27.989Z,21.80
2017-06-27T15:07:57.317Z,21.90
2017-06-27T15:10:25.855Z,21.80
2017-06-27T15:12:54.429Z,21.80
2017-06-27T15:15:22.919Z,21.60
2017-06-27T15:17:51.418Z,21.50
2017-06-27T15:20:20.863Z,21.30
2017-06-27T15:22:49.494Z,21.20
2017-06-27T15:25:17.998Z,21.40
2017-06-27T15:27:48.843Z,21.40
2017-06-27T15:30:18.103Z,21.20
2017-06-27T15:32:47.397Z,21.70
2017-06-27T15:35:16.077Z,21.60
2017-06-27T15:37:44.634Z,21.50
2017-06-27T15:40:14.282Z,21.50
2017-06-27T15:42:47.380Z,21.10
2017-06-27T15:45:15.896Z,21.00
2017-06-27T15:47:44.407Z,21.20
2017-06-27T15:50:12.903Z,21.10
2017-06-27T15:52:41.776Z,21.00
2017-06-27T15:55:10.459Z,20.80
2017-06-27T15:57:49.394Z,20.80
2017-06-27T16:00:18.177Z,21.00
2017-06-27T16:02:46.693Z,21.00
2017-06-27T16:05:15.245Z,20.90
2017-06-27T16:07:43.830Z,20.90
2017-06-27T16:10:12.514Z,21.00
2017-06-27T16:12:41.150Z,20.90
2017-06-27T16:15:09.698Z,21.00
2017-06-27T16:17:38.226Z,21.00
2017-06-27T16:20:06.878Z,21.00
2017-06-27T16:22:35.543Z,20.90
2017-06-27T16:25:04.234Z,20.80
2017-06-27T16:27:32.844Z,20.90
2017-06-27T16:30:01.336Z,20.80
2017-06-27T16:32:29.852Z,20.80
2017-06-27T16:34:58.467Z,20.80
2017-06-27T16:37:27.741Z,20.80
2017-06-27T16:39:56.246Z,20.60
2017-06-27T16:42:24.857Z,20.60
2017-06-27T16:44:53.428Z,20.60
2017-06-27T16:47:21.938Z,20.60
2017-06-27T16:49:50.689Z,20.60
2017-06-27T16:52:19.272Z,20.60
2017-06-27T16:54:47.773Z,20.50
2017-06-27T16:57:16.294Z,20.60
2017-06-27T16:59:44.865Z,20.50
2017-06-27T17:02:13.431Z,20.60
2017-06-27T17:04:42.197Z,20.50
2017-06-27T17:07:11.036Z,20.50
2017-06-27T17:09:40.184Z,20.50
2017-06-27T17:12:08.730Z,20.50
2017-06-27T17:14:37.968Z,20.50
2017-06-27T17:17:06.481Z,20.40
2017-06-27T17:19:35.153Z,20.40
2017-06-27T17:22:03.871Z,20.50
2017-06-27T17:24:34.530Z,20.50
2017-06-27T17:27:04.555Z,20.50
2017-06-27T17:29:33.101Z,20.30
2017-06-27T17:32:01.668Z,20.30
2017-06-27T17:34:30.421Z,20.30
2017-06-27T17:36:58.919Z,20.20
2017-06-27T17:39:27.730Z,20.20
2017-06-27T17:41:56.303Z,20.30
2017-06-27T17:44:24.993Z,20.20
2017-06-27T17:46:53.972Z,20.00
2017-06-27T17:49:23.068Z,20.00
2017-06-27T17:51:52.369Z,20.00
2017-06-27T17:54:21.549Z,20.00
2017-06-27T17:56:50.138Z,19.80
2017-06-27T17:59:18.698Z,19.90
2017-06-27T18:01:48.256Z,19.90
2017-06-27T18:04:17.551Z,19.90
2017-06-27T18:06:47.262Z,19.90
2017-06-27T18:09:16.766Z,19.90
2017-06-27T18:11:46.269Z,19.90
2017-06-27T18:14:16.636Z,19.70
2017-06-27T18:16:46.717Z,19.70
2017-06-27T18:19:16.222Z,19.70
2017-06-27T18:21:45.453Z,19.70
2017-06-27T18:24:15.953Z,19.70
2017-06-27T18:26:46.069Z,19.70
2017-06-27T18:29:15.170Z,19.70
2017-06-27T18:31:44.506Z,19.70
2017-06-27T18:34:13.794Z,19.60
2017-06-27T18:36:42.981Z,19.50
2017-06-27T18:39:12.581Z,19.40
2017-06-27T18:41:42.609Z,19.40
2017-06-27T18:44:13.411Z,19.30
2017-06-27T18:46:42.846Z,19.40
2017-06-27T18:49:12.348Z,19.30
2017-06-27T18:51:42.319Z,19.20
2017-06-27T18:54:12.329Z,19.10
2017-06-27T18:56:41.610Z,19.20
2017-06-27T18:59:11.294Z,19.10
2017-06-27T19:01:40.716Z,19.20
2017-06-27T19:04:10.417Z,19.10
2017-06-27T19:06:39.831Z,19.10
2017-06-27T19:09:10.034Z,19.00
2017-06-27T19:11:39.170Z,19.00
2017-06-27T19:14:08.859Z,19.00
2017-06-27T19:16:39.001Z,19.00
2017-06-27T19:19:08.880Z,19.00
2017-06-27T19:21:38.219Z,19.00
2017-06-27T19:24:07.467Z,19.00
2017-06-27T19:26:36.679Z,18.90
2017-06-27T19:29:06.163Z,18.80
2017-06-27T19:31:35.579Z,18.80
2017-06-27T19:34:04.932Z,18.80
2017-06-27T19:36:34.167Z,18.80
2017-06-27T19:39:03.575Z,18.70
2017-06-27T19:41:33.678Z,18.80
2017-06-27T19:45:06.468Z,18.60
2017-06-27T19:47:35.709Z,18.70
2017-06-27T19:50:05.010Z,18.70
2017-06-27T19:52:33.882Z,18.70
2017-06-27T19:55:02.569Z,18.60
2017-06-27T19:57:31.418Z,18.70
2017-06-27T20:00:00.163Z,18.50
2017-06-27T20:02:29.572Z,18.50
2017-06-27T20:04:58.242Z,18.50
2017-06-27T20:07:27.152Z,18.50
2017-06-27T20:09:55.757Z,18.40
2017-06-27T20:12:25.246Z,18.40
2017-06-27T20:14:54.032Z,18.40
2017-06-27T20:17:22.901Z,18.30
2017-06-27T20:19:51.788Z,18.30
2017-06-27T20:22:20.548Z,18.30
2017-06-27T20:24:49.288Z,18.20
2017-06-27T20:27:18.081Z,18.20
2017-06-27T20:29:47.141Z,18.10
2017-06-27T20:32:15.769Z,18.20
2017-06-27T20:34:44.703Z,18.20
2017-06-27T20:37:13.328Z,18.10
2017-06-27T20:39:42.321Z,18.10
2017-06-27T20:42:11.124Z,18.10
2017-06-27T20:44:40.012Z,18.00
2017-06-27T20:47:08.725Z,18.00
2017-06-27T20:49:37.798Z,18.00
2017-06-27T20:52:06.396Z,17.90
2017-06-27T20:54:35.722Z,17.90
2017-06-27T20:57:05.190Z,17.80
2017-06-27T20:59:34.073Z,17.70
2017-06-27T21:02:03.123Z,17.50
2017-06-27T21:04:31.921Z,17.40
2017-06-27T21:07:00.763Z,17.20
2017-06-27T21:09:29.790Z,17.20
2017-06-27T21:11:58.762Z,17.10
2017-06-27T21:14:27.933Z,17.00
2017-06-27T21:16:56.680Z,16.90
2017-06-27T21:19:25.805Z,16.90
2017-06-27T21:21:54.353Z,16.90
2017-06-27T21:24:23.238Z,16.80
2017-06-27T21:26:51.835Z,16.80
2017-06-27T21:29:20.709Z,16.80
2017-06-27T21:31:49.545Z,16.70
2017-06-27T21:34:18.114Z,16.70
2017-06-27T21:36:46.851Z,16.60
2017-06-27T21:39:16.054Z,16.60
2017-06-27T21:41:44.833Z,16.50
2017-06-27T21:44:13.930Z,16.60
2017-06-27T21:46:42.621Z,16.50
2017-06-27T21:49:11.229Z,16.50
2017-06-27T21:51:39.950Z,16.40
2017-06-27T21:54:08.708Z,16.40
2017-06-27T21:56:37.529Z,16.20
2017-06-27T21:59:06.352Z,16.20
2017-06-27T22:01:35.336Z,16.20
2017-06-27T22:04:05.390Z,16.20
2017-06-27T22:06:34.477Z,16.10
2017-06-27T22:09:03.361Z,16.10
2017-06-27T22:11:32.172Z,16.10
2017-06-27T22:14:00.972Z,16.10
2017-06-27T22:16:29.644Z,16.00
2017-06-27T22:18:58.895Z,15.90
2017-06-27T22:21:28.130Z,15.90
2017-06-27T22:23:56.637Z,15.80
2017-06-27T22:26:25.132Z,15.90
2017-06-27T22:28:54.344Z,15.80
2017-06-27T22:31:22.782Z,15.80
2017-06-27T22:33:51.622Z,15.80
2017-06-27T22:36:20.377Z,15.70
2017-06-27T22:38:48.964Z,15.70
2017-06-27T22:41:17.761Z,15.70
2017-06-27T22:43:46.347Z,15.70
2017-06-27T22:46:14.864Z,15.70
2017-06-27T22:48:44.617Z,15.70
2017-06-27T22:51:13.228Z,15.60
2017-06-27T22:53:41.981Z,15.70
2017-06-27T22:56:10.669Z,15.70
2017-06-27T22:58:39.128Z,15.60
2017-06-27T23:01:08.357Z,15.60
2017-06-27T23:03:37.015Z,15.60
2017-06-27T23:06:05.640Z,15.60
2017-06-27T23:08:34.103Z,15.50
2017-06-27T23:11:02.574Z,15.60
2017-06-27T23:13:31.082Z,15.50
2017-06-27T23:15:59.660Z,15.50
2017-06-27T23:18:28.158Z,15.50
2017-06-27T23:20:56.613Z,15.50
2017-06-27T23:23:25.436Z,15.60
2017-06-27T23:25:53.908Z,15.60
2017-06-27T23:28:22.454Z,15.60
2017-06-27T23:30:51.018Z,15.50
2017-06-27T23:33:19.523Z,15.50
2017-06-27T23:35:48.845Z,15.50
2017-06-27T23:38:17.352Z,15.50
2017-06-27T23:40:45.873Z,15.50
2017-06-27T23:43:14.423Z,15.50
2017-06-27T23:45:42.899Z,15.50
2017-06-27T23:48:11.401Z,15.50
2017-06-27T23:50:39.905Z,15.50
2017-06-27T23:53:08.535Z,15.40
2017-06-27T23:55:37.046Z,15.40
2017-06-27T23:58:05.541Z,15.30
